Time;durP1;ratioP1;P1;durP2;ratioP2;P2;SDS_P1;SDS_P2;PMS_P1;PMS_P2;Temp;Humidity;BMP_temperature;BMP_pressure;BME280_temperature;BME280_humidity;BME280_pressure;Samples;Min_cycle;Max_cycle;Signal;HPM_P1;HPM_P2
2022/12/06 00:00:40;;;;;;;8.07;7.37;;;8.10;48.90;;;;;;10423215;28;20660;-70
2022/12/06 00:05:44;;;;;;;7.83;7.20;;;8.10;48.90;;;;;;10421243;28;20712;-70
2022/12/06 00:10:49;;;;;;;8.00;7.40;;;8.10;48.80;;;;;;10421147;28;20709;-70
2022/12/06 00:15:52;;;;;;;8.40;7.70;;;8.10;48.80;;;;;;10427388;28;20566;-70
2022/12/06 00:20:56;;;;;;;8.13;7.47;;;8.10;48.70;;;;;;10423023;28;20236;-70
2022/12/06 00:26:00;;;;;;;8.73;8.03;;;8.00;48.70;;;;;;10423752;28;20579;-70
2022/12/06 00:31:06;;;;;;;8.80;8.03;;;8.00;48.80;;;;;;10421964;28;20236;-70
2022/12/06 00:36:16;;;;;;;8.43;7.73;;;8.00;48.80;;;;;;10418020;28;20617;-70
2022/12/06 00:41:20;;;;;;;8.60;7.90;;;8.00;48.80;;;;;;10416698;28;20789;-70
2022/12/06 00:46:25;;;;;;;8.33;7.63;;;8.00;48.80;;;;;;10421202;28;20264;-70
2022/12/06 00:51:32;;;;;;;8.93;8.23;;;8.00;48.70;;;;;;10417551;28;20320;-70
2022/12/06 00:56:36;;;;;;;8.90;8.10;;;8.00;48.60;;;;;;10421596;28;20278;-70
2022/12/06 01:01:39;;;;;;;8.80;8.10;;;8.00;48.60;;;;;;10422346;28;20237;-70
2022/12/06 01:06:43;;;;;;;9.37;8.57;;;8.00;48.50;;;;;;10418625;28;20229;-70
2022/12/06 01:11:46;;;;;;;9.43;8.63;;;8.00;48.50;;;;;;10422935;28;20307;-69
2022/12/06 01:16:50;;;;;;;9.83;8.93;;;7.90;48.50;;;;;;10420438;28;20755;-70
2022/12/06 01:21:54;;;;;;;10.20;9.30;;;7.90;48.60;;;;;;10421364;28;20240;-70
2022/12/06 01:26:57;;;;;;;9.97;9.07;;;7.90;48.80;;;;;;10419572;28;20237;-69
2022/12/06 01:32:00;;;;;;;10.87;9.87;;;7.90;48.80;;;;;;10418761;28;20242;-70
2022/12/06 01:37:05;;;;;;;10.77;9.87;;;7.90;48.80;;;;;;10416831;28;20279;-70
2022/12/06 01:42:10;;;;;;;10.60;9.70;;;7.90;48.70;;;;;;10418967;28;20242;-70
2022/12/06 01:47:18;;;;;;;9.73;8.93;;;7.90;48.80;;;;;;10418141;28;20237;-70
2022/12/06 01:52:26;;;;;;;10.50;9.60;;;7.90;48.80;;;;;;10419858;28;20256;-70
2022/12/06 01:57:30;;;;;;;10.63;9.73;;;7.90;48.70;;;;;;10410220;28;20237;-70
2022/12/06 02:02:33;;;;;;;11.40;10.30;;;7.90;48.60;;;;;;10415177;28;20229;-70
2022/12/06 02:07:39;;;;;;;10.73;9.73;;;7.90;48.60;;;;;;10412994;28;20504;-70
2022/12/06 02:12:42;;;;;;;11.03;10.13;;;7.90;48.60;;;;;;10420830;28;20312;-70
2022/12/06 02:17:50;;;;;;;12.23;11.13;;;7.90;48.40;;;;;;10416709;28;20232;-70
2022/12/06 02:23:40;;;;;;;11.63;10.63;;;7.90;48.40;;;;;;10416686;28;20372;-69
2022/12/06 02:29:14;;;;;;;11.50;10.50;;;7.90;48.40;;;;;;10247710;28;20287;-69
2022/12/06 02:34:25;;;;;;;11.50;10.40;;;7.90;48.30;;;;;;10367064;28;20752;-69
2022/12/06 02:39:35;;;;;;;11.87;10.87;;;7.80;48.20;;;;;;10378417;28;20229;-70
2022/12/06 02:44:43;;;;;;;11.53;10.57;;;7.70;48.30;;;;;;10380372;28;20230;-70
2022/12/06 02:49:49;;;;;;;10.53;9.53;;;7.70;48.60;;;;;;10377121;28;20420;-70
2022/12/06 02:54:55;;;;;;;11.67;10.57;;;7.60;48.60;;;;;;10375212;28;20575;-70
2022/12/06 02:59:58;;;;;;;11.27;10.27;;;7.60;48.80;;;;;;10373067;28;20237;-69
2022/12/06 03:05:12;;;;;;;11.60;10.50;;;7.60;48.80;;;;;;10390051;28;20248;-70
2022/12/06 03:10:28;;;;;;;10.50;9.60;;;7.60;48.80;;;;;;10384931;28;20280;-70
2022/12/06 03:15:42;;;;;;;11.53;10.43;;;7.60;48.70;;;;;;10381805;28;20233;-70
2022/12/06 03:20:51;;;;;;;12.13;10.83;;;7.60;48.70;;;;;;10391532;28;20412;-70
2022/12/06 03:25:58;;;;;;;11.37;10.40;;;7.60;48.60;;;;;;10387014;28;20280;-70
2022/12/06 03:31:03;;;;;;;12.43;11.27;;;7.60;48.50;;;;;;10391251;28;20977;-70
2022/12/06 03:36:10;;;;;;;11.80;10.80;;;7.60;48.50;;;;;;10380681;28;20574;-70
2022/12/06 03:41:16;;;;;;;11.93;10.83;;;7.60;48.50;;;;;;10383126;28;20438;-70
2022/12/06 03:46:23;;;;;;;11.77;10.57;;;7.50;48.60;;;;;;10382953;28;20233;-70
2022/12/06 03:51:33;;;;;;;11.87;10.80;;;7.50;48.60;;;;;;10388235;28;20237;-70
2022/12/06 03:56:37;;;;;;;11.93;10.93;;;7.50;48.70;;;;;;10383228;28;20623;-70
2022/12/06 04:01:40;;;;;;;11.23;10.23;;;7.50;48.70;;;;;;10385557;28;20287;-70
2022/12/06 04:06:45;;;;;;;12.00;10.90;;;7.50;48.60;;;;;;10390470;28;20257;-69
2022/12/06 04:11:48;;;;;;;12.13;10.97;;;7.60;48.70;;;;;;10390717;28;20615;-70
2022/12/06 04:43:42;;;;;;;11.70;10.60;;;7.60;48.80;;;;;;10375946;28;20234;-70
2022/12/06 04:48:45;;;;;;;12.17;11.07;;;7.70;48.60;;;;;;10383375;28;20280;-69
2022/12/06 04:53:50;;;;;;;13.00;11.80;;;7.70;48.60;;;;;;10375306;28;20230;-70
2022/12/06 04:58:53;;;;;;;12.47;11.27;;;7.70;48.40;;;;;;10378040;28;20284;-70
2022/12/06 05:03:56;;;;;;;11.70;10.60;;;7.60;48.30;;;;;;10379682;28;20238;-70
2022/12/06 05:09:02;;;;;;;13.03;11.87;;;7.60;48.50;;;;;;10378220;28;20234;-69
2022/12/06 05:14:05;;;;;;;14.47;13.07;;;7.60;48.60;;;;;;10388049;28;20240;-70
2022/12/06 05:19:08;;;;;;;14.20;12.70;;;7.60;48.50;;;;;;10378938;28;20281;-70
2022/12/06 05:24:14;;;;;;;14.10;12.80;;;7.60;48.60;;;;;;10378531;28;20246;-70
2022/12/06 05:29:18;;;;;;;14.53;13.23;;;7.60;48.60;;;;;;10377097;28;20644;-69
2022/12/06 05:34:21;;;;;;;15.80;14.23;;;7.60;48.50;;;;;;10382286;28;20246;-69
2022/12/06 05:39:26;;;;;;;16.47;14.77;;;7.60;48.50;;;;;;10381643;28;20240;-69
2022/12/06 05:44:29;;;;;;;15.53;14.07;;;7.60;48.40;;;;;;10374701;28;20245;-69
2022/12/06 05:49:32;;;;;;;15.40;13.90;;;7.60;48.60;;;;;;10374336;28;20635;-76
2022/12/06 05:54:37;;;;;;;15.33;13.83;;;7.60;48.50;;;;;;10376577;28;20241;-75
2022/12/06 05:59:40;;;;;;;14.37;12.97;;;7.50;48.40;;;;;;10386243;28;20577;-75
2022/12/06 06:04:43;;;;;;;12.40;11.20;;;7.50;48.70;;;;;;10390454;28;20230;-75
2022/12/06 06:09:47;;;;;;;13.97;12.43;;;7.60;48.90;;;;;;10374011;28;20230;-76
2022/12/06 06:14:50;;;;;;;13.60;12.30;;;7.60;48.60;;;;;;10376951;28;20229;-75
2022/12/06 06:19:53;;;;;;;15.10;13.60;;;7.60;48.60;;;;;;10391605;28;20253;-76
2022/12/06 06:24:58;;;;;;;14.57;13.17;;;7.60;48.40;;;;;;10382392;28;20604;-76
2022/12/06 06:30:01;;;;;;;14.97;13.57;;;7.60;48.30;;;;;;10385102;28;20280;-76
2022/12/06 06:35:07;;;;;;;16.60;14.90;;;7.50;48.20;;;;;;10412102;28;20232;-76
2022/12/06 06:40:12;;;;;;;15.17;13.60;;;7.50;48.30;;;;;;10430430;28;20294;-76
2022/12/06 06:45:15;;;;;;;13.57;12.17;;;7.40;48.30;;;;;;10426298;28;20229;-76
2022/12/06 06:50:18;;;;;;;13.50;12.20;;;7.40;48.40;;;;;;10427083;28;20240;-76
2022/12/06 06:55:22;;;;;;;14.13;12.83;;;7.40;48.60;;;;;;10426688;28;22384;-76
2022/12/06 07:00:26;;;;;;;14.43;13.03;;;7.40;48.70;;;;;;10455525;22;20243;-75
2022/12/06 07:05:29;;;;;;;14.37;13.07;;;7.40;48.70;;;;;;10444950;28;20237;-75
2022/12/06 07:10:34;;;;;;;16.00;14.40;;;7.50;48.60;;;;;;10444683;28;20236;-75
2022/12/06 07:15:37;;;;;;;17.67;14.90;;;7.50;48.40;;;;;;10445620;28;20233;-76
2022/12/06 07:20:40;;;;;;;14.40;13.00;;;7.60;48.50;;;;;;10441579;28;20232;-75
2022/12/06 07:25:44;;;;;;;15.03;13.63;;;7.50;48.30;;;;;;10443527;28;20225;-75
2022/12/06 07:30:47;;;;;;;15.43;14.00;;;7.50;48.40;;;;;;10437715;28;20233;-75
2022/12/06 07:35:52;;;;;;;15.93;14.43;;;7.50;48.40;;;;;;10441527;28;20232;-76
2022/12/06 07:46:38;;;;;;;15.60;14.07;;;7.40;48.60;;;;;;10443894;28;20282;-76
2022/12/06 07:51:42;;;;;;;15.10;13.60;;;7.30;48.60;;;;;;10426939;28;20232;-76
2022/12/06 07:56:46;;;;;;;15.13;13.73;;;7.20;48.60;;;;;;10440307;28;20628;-76
2022/12/06 08:01:50;;;;;;;15.87;14.37;;;7.20;48.50;;;;;;10447641;28;20303;-76
2022/12/06 08:06:54;;;;;;;15.50;14.00;;;7.20;48.80;;;;;;10444707;28;20306;-75
2022/12/06 08:11:58;;;;;;;16.07;14.47;;;7.20;48.80;;;;;;10444617;28;20464;-75
2022/12/06 08:17:01;;;;;;;17.07;15.47;;;7.10;48.90;;;;;;10438855;28;20279;-74
2022/12/06 08:22:04;;;;;;;16.03;14.43;;;7.20;49.00;;;;;;10443577;28;20240;-76
2022/12/06 08:27:09;;;;;;;15.13;13.53;;;7.20;48.90;;;;;;10441230;28;20233;-76
2022/12/06 08:32:12;;;;;;;14.47;13.07;;;7.10;48.80;;;;;;10441234;28;20722;-76
2022/12/06 08:37:16;;;;;;;14.40;13.03;;;7.10;48.90;;;;;;10447251;28;20716;-78
2022/12/06 08:42:20;;;;;;;14.60;13.20;;;7.10;49.10;;;;;;10446086;28;20728;-77
2022/12/06 08:47:27;;;;;;;14.80;13.40;;;7.10;49.20;;;;;;10440500;28;20237;-78
2022/12/06 08:52:30;;;;;;;13.63;12.30;;;7.10;49.20;;;;;;10443440;28;20233;-77
2022/12/06 08:57:35;;;;;;;13.30;11.90;;;7.20;49.00;;;;;;10441558;28;20232;-77
2022/12/06 09:02:39;;;;;;;14.33;13.03;;;7.20;49.00;;;;;;10442271;28;20913;-82
2022/12/06 09:07:42;;;;;;;15.07;13.57;;;7.30;49.10;;;;;;10444494;28;20229;-82
2022/12/06 09:12:47;;;;;;;14.20;12.90;;;7.30;49.10;;;;;;10440680;28;20252;-77
2022/12/06 09:17:50;;;;;;;16.53;14.93;;;7.30;48.80;;;;;;10441970;28;20282;-78
2022/12/06 09:22:54;;;;;;;14.90;13.50;;;7.40;49.10;;;;;;10437047;28;20251;-78
2022/12/06 09:28:06;;;;;;;15.10;13.67;;;7.40;49.10;;;;;;10475335;27;20960;-69
2022/12/06 09:33:09;;;;;;;15.07;13.67;;;7.50;49.10;;;;;;10441126;28;20239;-68
2022/12/06 09:38:14;;;;;;;15.67;14.17;;;7.50;49.00;;;;;;10447701;28;20237;-68
2022/12/06 09:43:29;;;;;;;14.43;13.03;;;7.60;49.00;;;;;;10438314;28;20229;-68
2022/12/06 09:48:55;;;;;;;15.23;13.83;;;7.60;48.80;;;;;;10447246;28;20236;-68
2022/12/06 09:54:18;;;;;;;19.50;17.60;;;7.60;48.70;;;;;;10441158;28;20269;-68
2022/12/06 09:59:31;;;;;;;15.83;14.20;;;7.70;48.80;;;;;;10441605;28;22101;-68
2022/12/06 10:05:01;;;;;;;16.57;14.97;;;7.70;48.70;;;;;;10432722;28;20233;-68
2022/12/06 10:10:17;;;;;;;15.33;13.83;;;7.80;48.70;;;;;;10422826;28;20232;-71
2022/12/06 10:15:31;;;;;;;14.63;13.20;;;7.80;48.40;;;;;;10431934;28;20232;-76
2022/12/06 10:20:41;;;;;;;15.80;14.27;;;7.90;48.60;;;;;;10428529;28;20233;-76
2022/12/06 10:25:54;;;;;;;13.93;12.50;;;7.90;48.30;;;;;;10440915;28;20224;-75
2022/12/06 10:31:08;;;;;;;13.83;12.53;;;8.00;48.20;;;;;;10432219;28;20709;-75
2022/12/06 10:36:16;;;;;;;14.23;12.83;;;8.00;48.10;;;;;;10420979;28;20682;-76
2022/12/06 10:41:25;;;;;;;13.30;12.03;;;8.00;48.20;;;;;;10404825;28;20613;-77
2022/12/06 10:52:02;;;;;;;11.50;10.40;;;8.10;48.70;;;;;;10405212;28;20225;-67
2022/12/06 10:57:11;;;;;;;12.17;10.97;;;8.10;48.10;;;;;;10407248;28;20240;-68
2022/12/06 11:02:24;;;;;;;12.50;11.30;;;8.20;48.10;;;;;;10401418;28;20831;-67
2022/12/06 11:07:36;;;;;;;11.63;10.57;;;8.20;47.60;;;;;;10404457;28;20236;-67
2022/12/06 11:12:39;;;;;;;13.20;12.00;;;8.30;47.60;;;;;;10409665;28;20309;-67
2022/12/06 11:17:49;;;;;;;13.53;12.23;;;8.30;47.60;;;;;;10406133;28;20260;-68
2022/12/06 11:23:04;;;;;;;15.37;13.87;;;8.20;47.00;;;;;;10410651;28;20221;-67
2022/12/06 11:28:20;;;;;;;11.93;10.77;;;8.20;47.00;;;;;;10399190;28;20229;-71
2022/12/06 11:33:30;;;;;;;11.63;10.63;;;8.20;47.20;;;;;;10407515;28;20995;-71
2022/12/06 11:38:34;;;;;;;12.63;11.43;;;8.30;47.40;;;;;;10404480;28;21182;-70
2022/12/06 11:43:38;;;;;;;12.43;11.13;;;8.30;47.60;;;;;;10404269;28;20237;-71
2022/12/06 11:48:43;;;;;;;11.60;10.50;;;8.30;47.60;;;;;;10404445;28;20704;-71
2022/12/06 11:54:02;;;;;;;11.33;10.27;;;8.40;47.40;;;;;;10399276;28;20220;-70
2022/12/06 11:59:23;;;;;;;10.37;9.37;;;8.40;47.10;;;;;;10401506;28;20222;-71
2022/12/06 12:04:38;;;;;;;12.17;10.97;;;8.40;47.10;;;;;;10408118;28;20233;-71
2022/12/06 12:09:53;;;;;;;12.07;10.97;;;8.40;46.90;;;;;;10408094;28;20725;-71
2022/12/06 12:14:58;;;;;;;12.47;11.33;;;8.50;47.10;;;;;;10401919;28;20308;-71
2022/12/06 12:20:06;;;;;;;12.83;11.60;;;8.50;47.30;;;;;;10407052;28;20764;-71
2022/12/06 12:25:24;;;;;;;15.97;14.47;;;8.50;46.90;;;;;;10410332;28;20233;-76
2022/12/06 12:30:34;;;;;;;13.93;12.53;;;8.50;47.00;;;;;;10407323;28;20261;-67
2022/12/06 12:35:41;;;;;;;12.47;11.20;;;8.50;47.20;;;;;;10403553;28;20225;-67
2022/12/06 12:40:47;;;;;;;10.80;9.83;;;8.60;47.30;;;;;;10402791;28;20225;-68
2022/12/06 12:46:16;;;;;;;12.50;11.40;;;8.60;48.30;;;;;;10403832;28;20222;-70
2022/12/06 12:51:26;;;;;;;12.83;11.63;;;8.60;47.10;;;;;;10400235;28;20312;-68
2022/12/06 12:56:33;;;;;;;11.63;10.53;;;8.60;47.30;;;;;;10404871;28;20232;-71
2022/12/06 13:01:39;;;;;;;12.37;11.27;;;8.50;47.30;;;;;;10408250;28;20233;-71
2022/12/06 13:06:49;;;;;;;12.60;11.50;;;8.50;47.20;;;;;;10408032;28;20871;-67
2022/12/06 13:11:57;;;;;;;12.43;11.23;;;8.50;47.30;;;;;;10405288;28;20774;-67
2022/12/06 13:17:06;;;;;;;13.87;12.57;;;8.50;47.40;;;;;;10406967;28;20229;-68
2022/12/06 13:22:19;;;;;;;13.80;12.40;;;8.50;47.30;;;;;;10405842;28;20301;-68
2022/12/06 13:27:23;;;;;;;13.17;11.97;;;8.50;47.10;;;;;;10409825;28;20303;-67
2022/12/06 13:32:32;;;;;;;12.73;11.43;;;8.60;47.50;;;;;;10409117;28;20224;-67
2022/12/06 13:37:47;;;;;;;11.80;10.70;;;8.60;47.40;;;;;;10406537;28;20233;-67
2022/12/06 13:42:50;;;;;;;12.00;10.77;;;8.60;47.00;;;;;;10401466;28;20225;-67
2022/12/06 13:47:53;;;;;;;12.23;11.13;;;8.70;47.40;;;;;;10404740;28;20217;-67
2022/12/06 13:53:04;;;;;;;13.40;12.20;;;8.70;47.40;;;;;;10400041;28;20231;-68
2022/12/06 13:58:40;;;;;;;13.20;11.90;;;8.70;46.90;;;;;;10379811;28;20254;-68
2022/12/06 14:03:55;;;;;;;13.67;12.47;;;8.70;46.70;;;;;;10376279;28;20226;-68
2022/12/06 14:09:00;;;;;;;13.17;11.80;;;8.70;46.60;;;;;;10401416;28;20233;-68
2022/12/06 14:14:07;;;;;;;13.27;12.07;;;8.70;47.00;;;;;;10408051;28;20963;-68
2022/12/06 14:19:17;;;;;;;13.13;11.83;;;8.70;46.90;;;;;;10413273;28;20744;-68
2022/12/06 14:24:33;;;;;;;13.57;12.27;;;8.70;46.60;;;;;;10410873;28;20697;-67
2022/12/06 14:29:37;;;;;;;13.33;12.00;;;8.70;46.50;;;;;;10405967;28;20255;-68
2022/12/06 14:34:42;;;;;;;13.70;12.40;;;8.70;47.20;;;;;;10407802;28;20229;-68
2022/12/06 14:39:51;;;;;;;14.57;13.17;;;8.70;47.20;;;;;;10407763;28;20276;-67
2022/12/06 14:44:55;;;;;;;13.73;12.43;;;8.70;46.80;;;;;;10408695;28;20713;-67
2022/12/06 14:50:32;;;;;;;14.50;13.20;;;8.60;47.00;;;;;;10410774;28;20236;-68
2022/12/06 14:55:38;;;;;;;13.90;12.60;;;8.60;46.60;;;;;;10408688;28;20221;-67
2022/12/06 15:00:51;;;;;;;17.17;15.47;;;8.60;46.90;;;;;;10407630;28;20229;-67
2022/12/06 15:06:17;;;;;;;15.40;13.90;;;8.60;48.50;;;;;;10411481;28;20241;-68
2022/12/06 15:17:02;;;;;;;14.50;13.10;;;8.60;47.00;;;;;;10408171;28;20222;-68
2022/12/06 15:22:15;;;;;;;15.57;14.13;;;8.60;47.00;;;;;;10415212;28;20284;-68
2022/12/06 15:27:28;;;;;;;13.87;12.63;;;8.50;47.00;;;;;;10409907;28;20380;-68
2022/12/06 15:32:31;;;;;;;14.83;13.43;;;8.50;47.20;;;;;;10408017;28;20693;-68
2022/12/06 15:37:34;;;;;;;15.03;13.60;;;8.40;47.20;;;;;;10412548;28;20249;-68
2022/12/06 15:42:45;;;;;;;14.03;12.73;;;8.40;48.00;;;;;;10406491;28;20217;-70
2022/12/06 15:47:50;;;;;;;15.90;14.37;;;8.40;47.20;;;;;;10407967;28;20366;-67
2022/12/06 15:52:53;;;;;;;15.17;13.67;;;8.40;47.50;;;;;;10400753;28;20225;-67
2022/12/06 15:57:58;;;;;;;16.33;14.70;;;8.30;47.40;;;;;;10410752;28;20233;-67
2022/12/06 16:03:01;;;;;;;16.63;15.03;;;8.30;47.40;;;;;;10406958;28;20236;-67
2022/12/06 16:08:05;;;;;;;18.03;16.33;;;8.30;47.40;;;;;;10406257;28;20233;-68
2022/12/06 16:13:22;;;;;;;20.27;18.27;;;8.40;47.30;;;;;;10409608;28;20225;-68
2022/12/06 16:18:25;;;;;;;16.17;14.47;;;8.30;47.20;;;;;;10411085;28;20229;-67
2022/12/06 16:29:13;;;;;;;15.87;14.27;;;8.30;47.30;;;;;;10411303;28;20302;-68
2022/12/06 16:34:17;;;;;;;16.40;14.80;;;8.30;47.30;;;;;;10404080;28;20770;-68
2022/12/06 16:39:20;;;;;;;17.03;15.37;;;8.30;47.40;;;;;;10407261;28;20238;-76
2022/12/06 16:44:25;;;;;;;15.83;14.33;;;8.30;47.30;;;;;;10407550;28;20225;-68
2022/12/06 16:49:30;;;;;;;13.60;12.30;;;8.30;47.20;;;;;;10405230;28;20340;-70
2022/12/06 16:54:51;;;;;;;13.77;12.47;;;8.30;47.20;;;;;;10407806;28;20225;-71
2022/12/06 16:59:55;;;;;;;14.87;13.47;;;8.30;47.30;;;;;;10408467;28;20225;-71
2022/12/06 17:05:00;;;;;;;14.73;13.43;;;8.30;47.20;;;;;;10407343;28;20246;-71
2022/12/06 17:10:05;;;;;;;15.93;14.43;;;8.30;46.90;;;;;;10402304;28;20808;-71
2022/12/06 17:15:13;;;;;;;15.23;13.73;;;8.30;46.70;;;;;;10411207;28;20232;-71
2022/12/06 17:20:17;;;;;;;15.07;13.57;;;8.20;46.70;;;;;;10407049;28;20318;-71
2022/12/06 17:25:21;;;;;;;14.97;13.50;;;8.20;47.00;;;;;;10409596;28;20221;-71
2022/12/06 17:30:25;;;;;;;16.00;14.40;;;8.10;47.10;;;;;;10408850;28;20268;-75
2022/12/06 17:35:30;;;;;;;14.50;13.00;;;8.10;47.20;;;;;;10406030;28;20233;-67
2022/12/06 17:40:33;;;;;;;14.83;13.33;;;8.00;47.20;;;;;;10407348;28;20718;-67
2022/12/06 17:45:38;;;;;;;15.03;13.53;;;8.00;47.40;;;;;;10406239;28;20231;-69
2022/12/06 17:50:41;;;;;;;13.77;12.47;;;8.00;47.40;;;;;;10417185;28;20308;-68
2022/12/06 17:55:44;;;;;;;13.63;12.23;;;8.00;47.50;;;;;;10416453;28;20274;-68
2022/12/06 18:00:49;;;;;;;12.90;11.70;;;8.00;47.50;;;;;;10417917;28;20284;-67
2022/12/06 18:05:53;;;;;;;11.63;10.53;;;7.90;47.60;;;;;;10408893;28;20228;-70
2022/12/06 18:10:57;;;;;;;11.43;10.33;;;8.00;47.90;;;;;;10396571;28;20636;-71
2022/12/06 18:16:01;;;;;;;11.70;10.53;;;8.00;47.70;;;;;;10410537;28;20225;-71
2022/12/06 18:21:05;;;;;;;9.67;8.83;;;8.10;47.80;;;;;;10416984;28;20294;-71
2022/12/06 18:26:12;;;;;;;12.10;11.00;;;8.10;47.70;;;;;;10404471;28;20226;-71
2022/12/06 18:31:16;;;;;;;11.43;10.23;;;8.10;47.70;;;;;;10404235;28;20621;-71
2022/12/06 18:36:20;;;;;;;10.57;9.53;;;8.10;47.50;;;;;;10401609;28;20230;-70
2022/12/06 18:41:24;;;;;;;11.13;9.80;;;8.10;47.40;;;;;;10403104;28;20574;-70
2022/12/06 18:46:29;;;;;;;11.27;9.83;;;8.10;47.40;;;;;;10405730;28;20646;-73
2022/12/06 18:51:34;;;;;;;10.70;9.60;;;8.00;48.00;;;;;;10414368;28;20233;-71
2022/12/06 18:56:37;;;;;;;9.87;8.97;;;8.00;47.40;;;;;;10412709;28;20643;-68
2022/12/06 19:01:42;;;;;;;9.73;8.83;;;8.00;47.50;;;;;;10407681;28;20799;-71
2022/12/06 19:06:45;;;;;;;9.20;8.30;;;8.00;47.40;;;;;;10420338;28;20233;-75
2022/12/06 19:11:49;;;;;;;8.43;7.63;;;8.00;47.20;;;;;;10414620;28;20713;-75
2022/12/06 19:16:53;;;;;;;8.33;7.63;;;8.00;47.20;;;;;;10416100;28;20214;-75
2022/12/06 19:21:56;;;;;;;8.37;7.63;;;8.00;46.90;;;;;;10412798;28;20229;-75
2022/12/06 19:27:00;;;;;;;7.87;7.17;;;8.00;47.20;;;;;;10412357;28;20229;-75
2022/12/06 19:32:05;;;;;;;8.83;7.50;;;7.90;47.10;;;;;;10414104;28;20634;-75
2022/12/06 19:37:08;;;;;;;7.23;6.53;;;7.90;46.90;;;;;;10401746;28;20232;-75
2022/12/06 19:47:35;;;;;;;6.73;6.13;;;7.90;47.10;;;;;;10393804;28;21023;-75
2022/12/06 19:52:39;;;;;;;8.87;8.07;;;8.00;47.20;;;;;;10393079;28;20234;-75
2022/12/06 19:57:44;;;;;;;8.37;7.67;;;8.00;47.20;;;;;;10399992;28;20233;-69
2022/12/06 20:02:48;;;;;;;8.37;7.63;;;8.00;47.20;;;;;;10399643;28;20225;-71
2022/12/06 20:07:52;;;;;;;7.53;6.93;;;8.00;47.10;;;;;;10398506;28;20222;-71
2022/12/06 20:12:55;;;;;;;8.53;7.83;;;8.10;47.30;;;;;;10396861;28;20311;-71
2022/12/06 20:18:00;;;;;;;7.87;7.17;;;8.10;47.20;;;;;;10401561;28;20229;-71
2022/12/06 20:23:03;;;;;;;7.30;6.70;;;8.10;47.00;;;;;;10393508;28;20716;-71
2022/12/06 20:28:12;;;;;;;7.40;6.80;;;8.10;47.10;;;;;;10392527;28;20230;-71
2022/12/06 20:33:17;;;;;;;8.20;7.40;;;8.10;47.00;;;;;;10397020;28;20334;-69
2022/12/06 20:38:20;;;;;;;7.83;7.03;;;8.20;46.90;;;;;;10392552;28;20229;-75
2022/12/06 20:43:23;;;;;;;7.97;7.23;;;8.10;46.90;;;;;;10386939;28;20865;-68
2022/12/06 20:48:28;;;;;;;8.37;7.63;;;8.10;47.00;;;;;;10390729;28;20803;-68
2022/12/06 20:53:32;;;;;;;8.17;7.47;;;8.10;47.00;;;;;;10391377;28;20225;-76
2022/12/06 20:58:36;;;;;;;8.00;7.30;;;8.10;46.90;;;;;;10399977;28;20709;-68
2022/12/06 21:03:41;;;;;;;8.37;7.57;;;8.10;46.80;;;;;;10406148;28;20232;-68
2022/12/06 21:08:44;;;;;;;7.67;6.97;;;8.10;46.80;;;;;;10400928;28;20237;-72
2022/12/06 21:13:47;;;;;;;7.33;6.73;;;8.10;46.70;;;;;;10407080;28;20229;-72
2022/12/06 21:18:56;;;;;;;7.10;6.50;;;8.10;46.90;;;;;;10405100;28;20221;-72
2022/12/06 21:24:00;;;;;;;7.10;6.43;;;8.00;46.70;;;;;;10401008;28;20328;-68
2022/12/06 21:29:04;;;;;;;7.40;6.80;;;8.00;47.60;;;;;;10407651;28;20226;-69
2022/12/06 21:34:10;;;;;;;7.17;6.57;;;8.00;46.60;;;;;;10394342;28;20221;-69
2022/12/06 21:39:13;;;;;;;6.37;5.87;;;8.00;46.50;;;;;;10389561;28;20225;-71
2022/12/06 21:44:17;;;;;;;7.10;6.50;;;8.00;46.50;;;;;;10388983;28;20275;-72
2022/12/06 21:49:21;;;;;;;6.30;5.80;;;7.90;46.60;;;;;;10391373;28;20822;-71
2022/12/06 21:54:25;;;;;;;7.17;6.47;;;7.80;46.70;;;;;;10390905;28;20228;-70
2022/12/06 21:59:28;;;;;;;7.33;6.63;;;7.90;46.70;;;;;;10395058;28;20228;-71
2022/12/06 22:04:33;;;;;;;7.70;7.10;;;7.80;46.60;;;;;;10393445;28;20893;-75
2022/12/06 22:09:36;;;;;;;7.20;6.60;;;7.80;46.70;;;;;;10389324;28;20712;-70
2022/12/06 22:14:39;;;;;;;8.00;7.30;;;7.70;46.90;;;;;;10398528;28;20271;-68
2022/12/06 22:19:44;;;;;;;7.40;6.77;;;7.80;47.10;;;;;;10394235;28;20291;-67
2022/12/06 22:24:48;;;;;;;7.07;6.37;;;7.80;47.10;;;;;;10401685;28;20287;-67
2022/12/06 22:29:52;;;;;;;7.30;6.70;;;7.90;47.30;;;;;;10400479;28;20221;-67
2022/12/06 22:34:57;;;;;;;7.10;6.43;;;7.90;47.10;;;;;;10403034;28;20715;-67
2022/12/06 22:40:00;;;;;;;7.83;7.03;;;7.90;46.90;;;;;;10409058;28;20226;-75
2022/12/06 22:45:04;;;;;;;7.33;6.73;;;7.90;46.70;;;;;;10403624;28;20217;-67
2022/12/06 22:50:09;;;;;;;7.20;6.50;;;7.90;46.70;;;;;;10405237;28;20631;-68
2022/12/06 22:55:12;;;;;;;7.40;6.80;;;7.90;46.60;;;;;;10398278;28;20213;-67
2022/12/06 23:00:16;;;;;;;7.13;6.53;;;7.80;46.60;;;;;;10404665;28;20842;-70
2022/12/06 23:05:21;;;;;;;6.63;6.03;;;7.80;46.70;;;;;;10412478;28;20339;-69
2022/12/06 23:10:24;;;;;;;5.97;5.47;;;7.80;46.70;;;;;;10406497;28;20240;-67
2022/12/06 23:15:27;;;;;;;5.90;5.40;;;7.80;46.70;;;;;;10406588;28;20225;-70
2022/12/06 23:20:32;;;;;;;5.60;5.17;;;7.80;46.70;;;;;;10415871;28;20237;-69
2022/12/06 23:25:35;;;;;;;6.33;5.83;;;7.80;46.70;;;;;;10405952;28;20226;-67
2022/12/06 23:30:38;;;;;;;6.37;5.87;;;7.80;46.80;;;;;;10408251;28;20230;-67
2022/12/06 23:35:42;;;;;;;5.97;5.47;;;7.80;46.90;;;;;;10409992;28;20222;-71
2022/12/06 23:40:45;;;;;;;6.27;5.67;;;7.80;46.70;;;;;;10418503;28;20229;-67
2022/12/06 23:45:53;;;;;;;6.10;5.60;;;7.80;46.70;;;;;;10411945;28;20229;-71
2022/12/06 23:51:06;;;;;;;5.63;5.23;;;7.80;46.50;;;;;;10380386;28;20229;-71
2022/12/06 23:56:11;;;;;;;5.57;5.17;;;7.80;46.60;;;;;;10364407;28;20237;-71
